Time;durP1;ratioP1;P1;durP2;ratioP2;P2;SDS_P1;SDS_P2;PMS_P1;PMS_P2;Temp;Humidity;BMP_temperature;BMP_pressure;BME280_temperature;BME280_humidity;BME280_pressure;Samples;Min_cycle;Max_cycle;Signal;HPM_P1;HPM_P2
2023/07/12 00:00:50;;;;;;;4.50;2.05;;;;;;;18.35;100.00;100729.09;5049831;28;20033;-60
2023/07/12 00:03:17;;;;;;;4.45;1.90;;;;;;;18.35;100.00;100736.09;5050094;28;20028;-59
2023/07/12 00:05:43;;;;;;;4.65;2.17;;;;;;;18.33;100.00;100724.75;5036994;28;20025;-59
2023/07/12 00:08:18;;;;;;;2.95;1.73;;;;;;;18.33;100.00;100714.25;5048962;28;20580;-59
2023/07/12 00:10:44;;;;;;;1.98;1.40;;;;;;;18.32;100.00;100718.63;5049789;28;20017;-59
2023/07/12 00:13:10;;;;;;;1.73;1.58;;;;;;;18.32;100.00;100723.88;5050186;28;20029;-60
2023/07/12 00:15:37;;;;;;;2.17;1.60;;;;;;;18.30;100.00;100719.50;5049415;28;20056;-60
2023/07/12 00:18:05;;;;;;;3.50;1.67;;;;;;;18.29;100.00;100734.38;5038577;28;20096;-59
2023/07/12 00:20:33;;;;;;;2.35;1.73;;;;;;;18.29;100.00;100747.50;5040318;28;20544;-60
2023/07/12 00:22:59;;;;;;;4.20;1.90;;;;;;;18.27;100.00;100750.97;5049489;28;20032;-59
2023/07/12 00:25:28;;;;;;;4.72;1.95;;;;;;;18.27;100.00;100756.22;5049241;28;20376;-59
2023/07/12 00:27:54;;;;;;;2.78;2.20;;;;;;;18.27;100.00;100761.47;5043209;28;20017;-60
2023/07/12 00:30:22;;;;;;;2.78;1.95;;;;;;;18.27;100.00;100757.09;5046197;28;20086;-60
2023/07/12 00:32:51;;;;;;;2.63;1.85;;;;;;;18.28;100.00;100774.56;5049194;28;20486;-60
2023/07/12 00:35:20;;;;;;;2.67;1.88;;;;;;;18.27;100.00;100778.09;5044030;28;20021;-59
2023/07/12 00:37:45;;;;;;;2.92;2.47;;;;;;;18.25;100.00;100774.59;5037509;28;20473;-59
2023/07/12 00:40:41;;;;;;;4.28;2.33;;;;;;;18.12;100.00;100781.53;5048722;28;20035;-59
2023/07/12 00:43:20;;;;;;;4.70;2.30;;;;;;;18.13;100.00;100780.69;5049232;28;20021;-59
2023/07/12 00:45:50;;;;;;;3.85;2.35;;;;;;;18.12;100.00;100794.66;5037645;28;20016;-59
2023/07/12 00:48:16;;;;;;;2.95;2.55;;;;;;;18.15;100.00;100792.06;5045764;28;20398;-59
2023/07/12 00:50:42;;;;;;;4.93;2.53;;;;;;;18.19;100.00;100793.81;5037665;28;20017;-59
2023/07/12 00:53:16;;;;;;;5.85;2.70;;;;;;;18.13;100.00;100791.19;5048974;28;20025;-59
2023/07/12 00:56:02;;;;;;;4.40;2.47;;;;;;;18.10;100.00;100791.16;5048618;28;20029;-59
2023/07/12 00:58:32;;;;;;;3.55;2.60;;;;;;;18.09;100.00;100800.78;5049306;28;20039;-59
2023/07/12 01:00:59;;;;;;;4.43;2.63;;;;;;;18.16;100.00;100806.06;5048738;28;20039;-59
2023/07/12 01:03:29;;;;;;;5.70;2.55;;;;;;;18.21;100.00;100804.31;5048435;28;20052;-59
2023/07/12 01:05:55;;;;;;;5.38;2.50;;;;;;;18.26;100.00;100822.66;5036186;28;20511;-59
2023/07/12 01:08:21;;;;;;;7.63;3.03;;;;;;;18.20;100.00;100824.44;5048820;28;20033;-60
2023/07/12 01:10:47;;;;;;;5.63;2.88;;;;;;;18.19;100.00;100813.91;5049033;28;20021;-60
2023/07/12 01:13:12;;;;;;;4.88;2.20;;;;;;;18.21;100.00;100820.91;5047911;28;20037;-60
2023/07/12 01:15:37;;;;;;;5.82;2.33;;;;;;;18.22;100.00;100838.38;5048639;28;20013;-59
2023/07/12 01:18:05;;;;;;;4.78;2.40;;;;;;;18.21;100.00;100805.19;5048606;28;20044;-59
2023/07/12 01:20:37;;;;;;;5.70;2.42;;;;;;;18.17;100.00;100766.72;5047441;28;20023;-60
2023/07/12 01:23:02;;;;;;;4.25;2.63;;;;;;;18.12;100.00;100794.66;5048351;28;20033;-60
2023/07/12 01:25:32;;;;;;;5.63;2.50;;;;;;;18.09;100.00;100795.53;5047841;28;20055;-59
2023/07/12 01:27:57;;;;;;;3.80;2.70;;;;;;;18.08;100.00;100785.06;5048367;28;20067;-59
2023/07/12 01:30:22;;;;;;;4.50;2.88;;;;;;;17.98;100.00;100798.16;5047718;28;20642;-59
2023/07/12 01:32:51;;;;;;;4.90;3.38;;;;;;;17.97;100.00;100806.88;5048336;28;20028;-60
2023/07/12 01:35:16;;;;;;;4.68;2.47;;;;;;;17.98;100.00;100808.66;5046370;28;20032;-60
2023/07/12 01:37:42;;;;;;;5.18;2.63;;;;;;;18.02;100.00;100771.94;5047271;28;20029;-59
2023/07/12 01:40:08;;;;;;;6.95;2.88;;;;;;;18.04;100.00;100780.69;5035433;28;20539;-59
2023/07/12 01:42:33;;;;;;;6.18;3.00;;;;;;;18.02;100.00;100792.91;5047507;28;20033;-59
2023/07/12 01:44:58;;;;;;;4.18;2.50;;;;;;;18.02;100.00;100803.41;5048117;28;20481;-59
2023/07/12 01:47:23;;;;;;;4.53;2.40;;;;;;;18.03;100.00;100781.53;5047908;28;20070;-59
2023/07/12 01:49:49;;;;;;;6.47;3.13;;;;;;;17.99;100.00;100770.19;5048009;28;20036;-59
2023/07/12 01:52:14;;;;;;;5.28;3.40;;;;;;;17.83;100.00;100777.16;5047504;28;20362;-60
2023/07/12 01:54:39;;;;;;;6.55;2.95;;;;;;;17.69;100.00;100767.56;5047823;28;20029;-59
2023/07/12 01:57:06;;;;;;;5.70;2.83;;;;;;;17.58;100.00;100766.66;5046946;28;20436;-60
2023/07/12 01:59:31;;;;;;;5.63;3.50;;;;;;;17.32;100.00;100775.34;5047816;28;20480;-58
2023/07/12 02:01:56;;;;;;;6.93;3.40;;;;;;;17.28;100.00;100770.09;5047526;28;20032;-59
2023/07/12 02:04:22;;;;;;;5.45;3.35;;;;;;;17.04;100.00;100769.13;5047691;28;20047;-59
2023/07/12 02:06:47;;;;;;;6.40;3.40;;;;;;;16.95;100.00;100771.69;5046489;28;20115;-60
2023/07/12 02:09:12;;;;;;;8.35;3.63;;;;;;;16.86;100.00;100756.81;5046169;28;20574;-59
2023/07/12 02:11:37;;;;;;;6.18;3.60;;;;;;;16.80;100.00;100762.88;5047039;28;20180;-59
2023/07/12 02:14:03;;;;;;;5.63;3.25;;;;;;;16.78;100.00;100740.22;5047067;28;20052;-59
2023/07/12 02:16:28;;;;;;;7.93;3.53;;;;;;;16.61;100.00;100712.22;5047512;28;20504;-58
2023/07/12 02:18:53;;;;;;;5.45;3.60;;;;;;;16.56;100.00;100732.25;5047553;28;20021;-59
2023/07/12 02:21:18;;;;;;;5.97;3.92;;;;;;;16.66;100.00;100801.19;5046956;28;20374;-60
2023/07/12 02:23:44;;;;;;;7.30;3.75;;;;;;;16.68;100.00;100817.75;5041760;28;20017;-59
2023/07/12 02:26:09;;;;;;;8.02;4.30;;;;;;;16.61;100.00;100802.91;5047386;28;20025;-59
2023/07/12 02:28:34;;;;;;;8.32;4.30;;;;;;;16.61;100.00;100803.78;5046894;28;20385;-59
2023/07/12 02:31:32;;;;;;;7.45;4.60;;;;;;;16.50;100.00;100811.56;5047068;28;20024;-59
2023/07/12 02:33:57;;;;;;;5.43;4.10;;;;;;;16.49;100.00;100781.03;5056834;28;20041;-59
2023/07/12 02:36:23;;;;;;;6.60;4.10;;;;;;;16.45;100.00;100763.56;5046860;28;20488;-60
2023/07/12 02:38:49;;;;;;;8.38;4.32;;;;;;;16.37;100.00;100773.97;5047253;28;20134;-59
2023/07/12 02:41:15;;;;;;;8.80;4.22;;;;;;;16.37;100.00;100783.59;5047025;28;20049;-59
2023/07/12 02:43:40;;;;;;;6.82;4.60;;;;;;;16.26;100.00;100767.81;5046746;28;20032;-60
2023/07/12 02:46:06;;;;;;;9.32;4.18;;;;;;;16.16;100.00;100777.31;5046660;28;20552;-60
2023/07/12 02:48:31;;;;;;;5.20;4.00;;;;;;;16.09;100.00;100779.00;5047025;28;20025;-59
2023/07/12 02:50:56;;;;;;;5.30;3.13;;;;;;;16.01;100.00;100776.31;5032564;28;20111;-60
2023/07/12 02:53:22;;;;;;;8.02;2.90;;;;;;;16.02;100.00;100780.69;5046835;28;20029;-60
2023/07/12 02:55:51;;;;;;;4.22;3.38;;;;;;;15.97;100.00;100774.53;5047296;28;20469;-59
2023/07/12 02:58:18;;;;;;;5.75;3.15;;;;;;;15.84;100.00;100779.66;5046774;28;20024;-59
2023/07/12 03:00:43;;;;;;;4.80;2.70;;;;;;;15.92;100.00;100776.22;5034443;28;20013;-59
2023/07/12 03:03:09;;;;;;;7.65;2.75;;;;;;;15.98;100.00;100771.03;5047565;28;20036;-59
2023/07/12 03:05:38;;;;;;;5.75;2.63;;;;;;;16.10;100.00;100782.50;5047196;28;20241;-59
2023/07/12 03:08:03;;;;;;;4.78;2.83;;;;;;;16.11;100.00;100784.25;5047374;28;20047;-59
2023/07/12 03:10:29;;;;;;;5.70;2.47;;;;;;;16.08;100.00;100792.94;5048659;28;20033;-59
2023/07/12 03:12:54;;;;;;;4.75;3.20;;;;;;;16.11;100.00;100797.31;5050788;28;20468;-59
2023/07/12 03:15:20;;;;;;;4.65;2.70;;;;;;;16.10;100.00;100808.63;5037370;28;20047;-59
2023/07/12 03:17:46;;;;;;;6.85;2.63;;;;;;;16.01;100.00;100799.84;5050912;28;20464;-59
2023/07/12 03:20:11;;;;;;;3.20;2.70;;;;;;;16.06;100.00;100807.75;5050301;28;20040;-60
2023/07/12 03:22:36;;;;;;;3.78;2.30;;;;;;;16.06;100.00;100805.97;5050833;28;20473;-59
2023/07/12 03:25:02;;;;;;;4.03;3.47;;;;;;;16.06;100.00;100808.59;5037161;28;20467;-59
2023/07/12 03:27:27;;;;;;;4.60;2.05;;;;;;;16.08;100.00;100806.03;5050095;28;20048;-59
2023/07/12 03:29:52;;;;;;;3.42;2.40;;;;;;;15.99;100.00;100804.16;5050099;28;20152;-60
2023/07/12 03:32:19;;;;;;;6.95;2.83;;;;;;;15.97;100.00;100818.94;5049675;28;20040;-59
2023/07/12 03:34:44;;;;;;;6.55;3.15;;;;;;;15.85;100.00;100810.13;5048282;28;20104;-60
2023/07/12 03:37:11;;;;;;;5.22;2.75;;;;;;;15.84;100.00;100815.34;5048889;28;20025;-58
2023/07/12 03:39:37;;;;;;;3.40;2.72;;;;;;;15.81;100.00;100818.78;5048027;28;20126;-58
2023/07/12 03:42:02;;;;;;;6.20;3.13;;;;;;;15.72;100.00;100823.94;5047837;28;20110;-59
2023/07/12 03:44:27;;;;;;;4.50;2.70;;;;;;;15.72;100.00;100818.72;5047911;28;20024;-60
2023/07/12 03:46:53;;;;;;;5.78;3.22;;;;;;;15.77;100.00;100821.38;5047795;28;20020;-59
2023/07/12 03:49:18;;;;;;;4.90;3.33;;;;;;;15.79;100.00;100827.47;5047729;28;20377;-59
2023/07/12 03:51:44;;;;;;;6.65;3.33;;;;;;;15.82;100.00;100823.16;5039204;28;20029;-59
2023/07/12 03:54:09;;;;;;;5.28;3.22;;;;;;;15.82;100.00;100835.34;5046677;28;20025;-59
2023/07/12 03:56:35;;;;;;;5.40;3.30;;;;;;;15.77;100.00;100821.38;5049881;28;20021;-59
2023/07/12 03:59:00;;;;;;;7.20;3.50;;;;;;;15.82;100.00;100832.72;5048969;28;20047;-59
2023/07/12 04:01:25;;;;;;;5.30;3.58;;;;;;;15.80;100.00;100834.44;5050295;28;20119;-59
2023/07/12 04:03:50;;;;;;;4.75;3.95;;;;;;;15.72;100.00;100843.06;5049781;28;20025;-59
2023/07/12 04:06:16;;;;;;;7.15;4.03;;;;;;;15.66;100.00;100842.16;5050074;28;20488;-59
2023/07/12 04:08:41;;;;;;;6.28;4.20;;;;;;;15.69;100.00;100850.00;5049462;28;20035;-58
2023/07/12 04:11:07;;;;;;;7.13;3.78;;;;;;;15.76;100.00;100845.75;5048600;28;20025;-60
2023/07/12 04:13:32;;;;;;;7.38;5.38;;;;;;;15.60;100.00;100838.59;5049910;28;20056;-59
2023/07/12 04:15:59;;;;;;;6.20;4.80;;;;;;;15.60;100.00;100849.06;5050379;28;20033;-59
2023/07/12 04:18:26;;;;;;;6.88;4.22;;;;;;;15.58;100.00;100845.53;5049879;28;20488;-59
2023/07/12 04:20:52;;;;;;;11.07;5.05;;;;;;;15.48;100.00;100846.31;5040914;28;20477;-59
2023/07/12 04:23:18;;;;;;;7.00;4.32;;;;;;;15.38;100.00;100850.53;5047410;28;20410;-59
2023/07/12 04:25:43;;;;;;;7.68;4.95;;;;;;;15.43;100.00;100845.38;5050183;28;20028;-59
2023/07/12 04:28:09;;;;;;;8.38;4.47;;;;;;;15.42;100.00;100852.31;5049637;28;20377;-59
2023/07/12 04:30:35;;;;;;;5.18;4.65;;;;;;;15.47;100.00;100852.41;5048909;28;20466;-59
2023/07/12 04:33:00;;;;;;;11.73;5.80;;;;;;;15.52;100.00;100849.81;5049188;28;20032;-59
2023/07/12 04:35:26;;;;;;;6.55;4.43;;;;;;;15.51;100.00;100837.66;5049129;28;20041;-59
2023/07/12 04:37:51;;;;;;;8.55;5.30;;;;;;;15.53;100.00;100846.34;5049721;28;20029;-59
2023/07/12 04:40:18;;;;;;;6.63;4.50;;;;;;;15.44;100.00;100848.00;5049884;28;20088;-59
2023/07/12 04:42:44;;;;;;;7.32;3.95;;;;;;;15.52;100.00;100850.72;5049676;28;20036;-59
2023/07/12 04:45:13;;;;;;;5.93;3.67;;;;;;;15.54;100.00;100843.75;5048708;28;20056;-59
2023/07/12 04:47:38;;;;;;;5.43;3.60;;;;;;;15.57;100.00;100851.63;5049291;28;20029;-59
2023/07/12 04:50:05;;;;;;;8.85;3.97;;;;;;;15.58;100.00;100850.78;5049223;28;20040;-59
2023/07/12 04:52:31;;;;;;;8.88;3.65;;;;;;;15.56;100.00;100852.47;5048864;28;20029;-59
2023/07/12 04:54:57;;;;;;;5.30;2.80;;;;;;;15.59;100.00;100844.72;5049132;28;20024;-59
2023/07/12 04:57:23;;;;;;;5.70;3.33;;;;;;;15.61;100.00;100850.78;5049093;28;20479;-59
2023/07/12 04:59:48;;;;;;;5.05;3.38;;;;;;;15.61;100.00;100850.78;5049330;28;20028;-59
2023/07/12 05:02:14;;;;;;;6.72;3.55;;;;;;;15.60;100.00;100861.22;5048951;28;20029;-59
2023/07/12 05:04:40;;;;;;;8.93;3.15;;;;;;;15.59;100.00;100856.88;5039580;28;20483;-60
2023/07/12 05:07:09;;;;;;;8.43;3.70;;;;;;;15.55;100.00;100857.69;5048453;28;20037;-59
2023/07/12 05:09:35;;;;;;;7.40;3.30;;;;;;;15.61;100.00;100856.03;5046905;28;20151;-59
2023/07/12 05:12:00;;;;;;;8.15;3.83;;;;;;;15.67;100.00;100864.81;5044911;28;20132;-59
2023/07/12 05:14:25;;;;;;;7.80;4.05;;;;;;;15.69;100.00;100863.06;5045970;28;20237;-59
2023/07/12 05:16:50;;;;;;;7.13;3.20;;;;;;;15.72;100.00;100865.72;5046012;28;20562;-59
2023/07/12 05:19:16;;;;;;;6.80;3.90;;;;;;;15.79;100.00;100872.78;5045836;28;20040;-59
2023/07/12 05:21:41;;;;;;;5.82;3.35;;;;;;;15.79;100.00;100864.94;5045726;28;20028;-59
2023/07/12 05:24:06;;;;;;;6.15;3.55;;;;;;;15.92;100.00;100878.13;5044787;28;20064;-59
2023/07/12 05:26:31;;;;;;;7.97;3.55;;;;;;;15.99;100.00;100887.78;5048265;28;20032;-59
2023/07/12 05:28:57;;;;;;;7.43;3.75;;;;;;;16.13;100.00;100887.06;5048052;28;20805;-59
2023/07/12 05:31:22;;;;;;;5.97;3.72;;;;;;;16.20;100.00;100886.28;5034926;28;20037;-59
2023/07/12 05:33:47;;;;;;;9.07;3.88;;;;;;;16.24;100.00;100892.41;5047784;28;20024;-59
2023/07/12 05:36:14;;;;;;;9.75;3.72;;;;;;;16.10;100.00;100885.28;5044459;28;20461;-59
2023/07/12 05:38:39;;;;;;;6.55;3.50;;;;;;;16.15;100.00;100874.91;5047856;28;20037;-59
2023/07/12 05:41:05;;;;;;;5.32;3.45;;;;;;;16.06;100.00;100879.16;5048542;28;20461;-59
2023/07/12 05:43:30;;;;;;;8.15;3.95;;;;;;;16.12;100.00;100882.72;5048274;28;20435;-58
2023/07/12 05:45:58;;;;;;;7.25;3.58;;;;;;;16.13;100.00;100879.22;5047899;28;20032;-58
2023/07/12 05:48:24;;;;;;;5.85;3.35;;;;;;;16.23;100.00;100886.28;5048016;28;20075;-59
2023/07/12 05:50:51;;;;;;;3.63;3.00;;;;;;;16.35;100.00;100887.28;5047987;28;20059;-58
2023/07/12 05:53:16;;;;;;;7.22;3.10;;;;;;;16.35;100.00;100884.66;5047693;28;20028;-59
2023/07/12 05:55:41;;;;;;;9.85;4.25;;;;;;;16.41;100.00;100884.69;5047656;28;20032;-59
2023/07/12 05:58:07;;;;;;;4.57;2.97;;;;;;;16.52;100.00;100897.88;5043641;28;20032;-60
2023/07/12 06:00:32;;;;;;;4.80;3.20;;;;;;;16.52;100.00;100888.28;5040192;28;20027;-60
2023/07/12 06:02:57;;;;;;;6.60;3.42;;;;;;;16.55;100.00;100898.75;5046415;28;20476;-59
2023/07/12 06:05:22;;;;;;;8.18;3.10;;;;;;;16.53;100.00;100904.88;5046711;28;20441;-60
2023/07/12 06:07:48;;;;;;;7.90;3.85;;;;;;;16.60;100.00;100911.91;5047400;28;20036;-60
2023/07/12 06:10:15;;;;;;;4.88;2.90;;;;;;;16.57;100.00;100909.25;5046352;28;20025;-59
2023/07/12 06:12:41;;;;;;;6.43;2.88;;;;;;;16.65;100.00;100915.44;5047106;28;20381;-60
2023/07/12 06:15:07;;;;;;;5.00;3.30;;;;;;;16.66;100.00;100906.69;5046973;28;20047;-60
2023/07/12 06:17:32;;;;;;;6.60;3.60;;;;;;;16.79;100.00;100905.06;5047932;28;20025;-60
2023/07/12 06:19:58;;;;;;;7.80;3.40;;;;;;;16.90;100.00;100909.50;5045635;28;20576;-58
2023/07/12 06:22:23;;;;;;;6.00;3.58;;;;;;;17.00;100.00;100910.44;5046251;28;20040;-60
2023/07/12 06:24:49;;;;;;;8.75;3.40;;;;;;;17.11;100.00;100911.41;5045713;28;20057;-59
2023/07/12 06:27:15;;;;;;;7.78;4.07;;;;;;;17.00;100.00;100913.91;5046729;28;20025;-60
2023/07/12 06:29:45;;;;;;;6.18;3.60;;;;;;;16.84;100.00;100912.06;5045807;28;20112;-60
2023/07/12 06:32:11;;;;;;;6.47;3.10;;;;;;;16.96;100.00;100912.16;5046176;28;20036;-59
2023/07/12 06:34:36;;;;;;;5.93;3.30;;;;;;;17.16;100.00;100927.16;5046017;28;20099;-60
2023/07/12 06:37:02;;;;;;;7.13;3.63;;;;;;;17.25;100.00;100929.78;5047278;28;20039;-60
2023/07/12 06:39:27;;;;;;;8.10;3.85;;;;;;;17.14;100.00;100921.88;5047175;28;20408;-60
2023/07/12 06:41:52;;;;;;;6.28;3.65;;;;;;;17.16;100.00;100945.47;5047685;28;20017;-58
2023/07/12 06:44:18;;;;;;;5.85;3.17;;;;;;;17.24;100.00;100951.63;5035008;28;20033;-60
2023/07/12 06:46:43;;;;;;;7.55;3.55;;;;;;;17.30;100.00;100957.75;5050926;28;20017;-59
2023/07/12 06:49:10;;;;;;;8.23;3.65;;;;;;;17.27;100.00;100956.88;5051339;28;20076;-60
2023/07/12 06:51:36;;;;;;;7.47;3.28;;;;;;;17.14;100.00;100955.91;5051392;28;20029;-59
2023/07/12 06:54:01;;;;;;;6.82;3.30;;;;;;;17.08;100.00;100961.09;5051306;28;20036;-60
2023/07/12 06:56:26;;;;;;;8.50;4.03;;;;;;;17.14;100.00;100961.16;5051467;28;20025;-60
2023/07/12 06:58:52;;;;;;;7.30;2.67;;;;;;;17.10;100.00;100966.34;5038199;28;20044;-60
2023/07/12 07:01:17;;;;;;;6.68;3.38;;;;;;;17.11;100.00;100976.84;5051099;28;20040;-60
2023/07/12 07:03:42;;;;;;;12.60;3.97;;;;;;;16.99;100.00;100972.38;5050888;28;20021;-59
2023/07/12 07:06:07;;;;;;;6.32;3.50;;;;;;;16.95;100.00;100977.56;5051442;28;20392;-60
2023/07/12 07:08:33;;;;;;;5.60;3.22;;;;;;;16.92;100.00;100987.16;5050574;28;20083;-60
2023/07/12 07:11:00;;;;;;;7.20;3.30;;;;;;;16.92;100.00;100991.50;5051210;28;20179;-59
2023/07/12 07:13:26;;;;;;;6.63;3.20;;;;;;;16.90;100.00;100986.25;5050984;28;20025;-59
2023/07/12 07:15:51;;;;;;;5.75;3.38;;;;;;;16.87;100.00;100985.38;5051129;28;20575;-59
2023/07/12 07:18:17;;;;;;;8.07;2.60;;;;;;;16.95;100.00;100986.28;5037636;28;20029;-60
2023/07/12 07:20:43;;;;;;;7.90;2.90;;;;;;;16.98;100.00;100983.69;5050962;28;20114;-59
2023/07/12 07:23:09;;;;;;;10.63;3.58;;;;;;;16.93;100.00;100985.41;5050425;28;20028;-60
2023/07/12 07:25:35;;;;;;;8.30;3.28;;;;;;;17.01;100.00;100986.34;5040386;28;20100;-60
2023/07/12 07:28:00;;;;;;;9.07;2.97;;;;;;;17.06;100.00;100994.22;5050317;28;20119;-60
2023/07/12 07:30:27;;;;;;;7.60;3.33;;;;;;;17.23;100.00;100988.28;5050648;28;20487;-60
2023/07/12 07:32:54;;;;;;;8.00;3.22;;;;;;;17.42;100.00;100997.13;5050232;28;20032;-58
2023/07/12 07:35:20;;;;;;;9.45;4.10;;;;;;;17.57;100.00;100992.84;5050480;28;20442;-60
2023/07/12 07:37:47;;;;;;;5.55;2.92;;;;;;;17.64;100.00;100994.63;5037623;28;20018;-59
2023/07/12 07:40:12;;;;;;;8.23;3.15;;;;;;;17.73;100.00;101006.88;5049222;28;20059;-59
2023/07/12 07:42:38;;;;;;;5.63;3.38;;;;;;;17.82;100.00;101006.94;5048803;28;20532;-60
2023/07/12 07:45:03;;;;;;;6.22;2.65;;;;;;;17.89;100.00;101010.44;5049301;28;20025;-60
2023/07/12 07:47:28;;;;;;;8.10;3.03;;;;;;;17.87;100.00;101012.19;5036120;28;20032;-60
2023/07/12 07:49:54;;;;;;;11.30;3.03;;;;;;;17.91;100.00;101006.09;5048801;28;20061;-59
2023/07/12 07:52:19;;;;;;;4.68;3.00;;;;;;;17.79;100.00;101006.03;5049137;28;20396;-59
2023/07/12 07:54:44;;;;;;;7.13;3.10;;;;;;;17.94;100.00;101018.31;5048858;28;20464;-60
2023/07/12 07:57:10;;;;;;;6.72;2.92;;;;;;;17.98;100.00;101018.38;5035593;28;20321;-60
2023/07/12 07:59:35;;;;;;;9.35;2.80;;;;;;;17.99;100.00;101021.84;5048893;28;20020;-59
2023/07/12 08:02:01;;;;;;;6.07;2.85;;;;;;;18.17;100.00;101015.81;5048936;28;20040;-60
2023/07/12 08:04:27;;;;;;;6.28;2.60;;;;;;;18.34;100.00;101020.25;5048797;28;20460;-60
2023/07/12 08:06:52;;;;;;;7.05;3.22;;;;;;;18.35;100.00;101016.75;5049105;28;20100;-60
2023/07/12 08:09:17;;;;;;;6.75;2.67;;;;;;;18.36;100.00;101021.13;5048604;28;20136;-59
2023/07/12 08:11:43;;;;;;;5.93;2.70;;;;;;;18.39;100.00;101029.00;5047492;28;20033;-60
2023/07/12 08:14:09;;;;;;;5.93;2.85;;;;;;;18.39;100.00;101023.75;5048166;28;20025;-60
2023/07/12 08:16:35;;;;;;;8.80;2.80;;;;;;;18.35;100.00;101027.22;5048890;28;20400;-60
2023/07/12 08:19:03;;;;;;;6.25;2.75;;;;;;;18.38;100.00;101026.38;5048460;28;20467;-60
2023/07/12 08:21:29;;;;;;;5.20;2.72;;;;;;;18.39;100.00;101028.13;5048458;28;20029;-59
2023/07/12 08:23:54;;;;;;;9.13;2.60;;;;;;;18.42;100.00;101038.63;5035437;28;20424;-60
2023/07/12 08:26:20;;;;;;;5.72;3.05;;;;;;;18.48;100.00;101038.63;5048700;28;20492;-59
2023/07/12 08:28:47;;;;;;;9.23;2.92;;;;;;;18.54;100.00;101043.91;5035195;28;20445;-60
2023/07/12 08:31:14;;;;;;;6.10;2.70;;;;;;;18.57;100.00;101038.66;5047891;28;20024;-60
2023/07/12 08:33:41;;;;;;;10.48;3.20;;;;;;;18.55;100.00;101039.50;5048577;28;20020;-59
2023/07/12 08:36:06;;;;;;;7.35;3.35;;;;;;;18.62;100.00;101041.28;5048162;28;20056;-60
2023/07/12 08:38:32;;;;;;;5.22;3.05;;;;;;;18.50;100.00;101043.88;5012368;28;1049138;-60
2023/07/12 08:40:58;;;;;;;6.22;2.58;;;;;;;18.54;100.00;101040.41;5049638;28;20369;-60
2023/07/12 08:43:31;;;;;;;6.22;2.53;;;;;;;18.53;100.00;101051.78;5049354;28;20594;-60
2023/07/12 08:46:04;;;;;;;10.00;3.25;;;;;;;18.35;100.00;101054.34;5048290;28;20025;-60
2023/07/12 08:48:30;;;;;;;8.07;3.47;;;;;;;18.43;100.00;101057.00;5048955;28;20465;-60
2023/07/12 08:50:55;;;;;;;6.28;3.03;;;;;;;18.50;100.00;101046.50;5046090;28;20049;-60
2023/07/12 08:53:25;;;;;;;7.15;2.97;;;;;;;18.46;100.00;101049.13;5038982;28;20025;-60
2023/07/12 08:55:52;;;;;;;4.55;2.30;;;;;;;18.51;100.00;101050.91;5048435;28;20021;-60
2023/07/12 08:58:27;;;;;;;6.90;3.00;;;;;;;18.50;100.00;101046.50;5048477;28;20017;-60
2023/07/12 09:01:07;;;;;;;5.78;2.78;;;;;;;18.55;100.00;101055.25;5048351;28;20036;-60
2023/07/12 09:03:32;;;;;;;7.93;3.20;;;;;;;18.55;100.00;101060.50;5049028;28;20063;-59
2023/07/12 09:05:58;;;;;;;7.25;3.13;;;;;;;18.53;100.00;101051.78;5048559;28;20467;-60
2023/07/12 09:08:33;;;;;;;7.43;3.67;;;;;;;18.56;100.00;101057.03;5047165;28;20040;-60
2023/07/12 09:10:59;;;;;;;5.85;2.90;;;;;;;18.63;100.00;101058.78;5036110;28;20512;-60
2023/07/12 09:13:38;;;;;;;6.13;2.90;;;;;;;18.69;100.00;101064.03;5048622;28;20063;-60
2023/07/12 09:16:21;;;;;;;6.18;3.30;;;;;;;18.73;100.00;101064.91;5037535;28;20056;-60
2023/07/12 09:18:50;;;;;;;7.95;3.53;;;;;;;18.89;100.00;101060.56;5047979;28;20040;-60
2023/07/12 09:21:22;;;;;;;4.72;2.80;;;;;;;19.27;100.00;101061.47;5048588;28;20056;-60
2023/07/12 09:23:47;;;;;;;6.20;2.75;;;;;;;19.62;100.00;101062.31;5048712;28;20366;-60
2023/07/12 09:26:23;;;;;;;6.15;2.67;;;;;;;19.90;100.00;101048.19;5048626;28;20192;-60
2023/07/12 09:28:50;;;;;;;4.68;2.30;;;;;;;20.15;99.70;101051.63;5036182;28;20409;-60
2023/07/12 09:31:24;;;;;;;5.68;2.28;;;;;;;20.46;98.96;101050.59;5035523;28;20029;-60
2023/07/12 09:34:00;;;;;;;5.68;2.67;;;;;;;20.63;98.08;101042.56;5048407;28;20123;-60
2023/07/12 09:36:26;;;;;;;4.38;2.15;;;;;;;20.71;96.38;101050.44;5047719;28;20127;-60
2023/07/12 09:38:51;;;;;;;5.10;2.33;;;;;;;20.84;95.50;101045.06;5047951;28;20521;-60
2023/07/12 09:41:23;;;;;;;7.80;3.25;;;;;;;20.94;93.14;101051.16;5047102;28;20029;-60
2023/07/12 09:43:55;;;;;;;5.60;2.60;;;;;;;21.13;92.58;101049.25;5048409;28;20013;-60
2023/07/12 09:46:33;;;;;;;7.43;3.30;;;;;;;20.75;88.04;101052.16;5048288;28;20418;-60
2023/07/12 09:49:04;;;;;;;6.03;3.55;;;;;;;20.86;89.40;101046.81;5047968;28;20025;-60
2023/07/12 09:51:53;;;;;;;4.82;2.22;;;;;;;21.06;89.63;101044.94;5047723;28;20043;-60
2023/07/12 09:54:27;;;;;;;7.22;2.58;;;;;;;20.97;89.79;101048.50;5034348;28;20037;-60
2023/07/12 09:57:02;;;;;;;4.35;2.15;;;;;;;20.82;92.50;101042.44;5047804;28;20028;-60
2023/07/12 09:59:40;;;;;;;6.43;2.55;;;;;;;20.67;92.22;101043.41;5035283;28;20017;-60
2023/07/12 10:02:20;;;;;;;5.15;2.60;;;;;;;20.82;89.25;101031.91;5034853;28;20025;-60
2023/07/12 10:04:50;;;;;;;3.92;2.40;;;;;;;20.99;87.39;101029.16;5047402;28;20438;-60
2023/07/12 10:07:42;;;;;;;6.55;2.72;;;;;;;21.25;86.31;101035.09;5047702;28;20539;-60
2023/07/12 10:10:24;;;;;;;5.22;2.22;;;;;;;21.40;85.27;101022.66;5048129;28;20024;-60
2023/07/12 10:13:02;;;;;;;4.90;2.40;;;;;;;21.51;88.04;101019.91;5036298;28;20063;-60
2023/07/12 10:15:33;;;;;;;7.10;2.47;;;;;;;21.66;86.48;101013.59;5045549;28;20027;-60
2023/07/12 10:18:02;;;;;;;7.82;1.42;;;;;;;21.87;84.59;101027.44;5047832;28;20700;-59
2023/07/12 10:20:28;;;;;;;4.65;1.88;;;;;;;21.94;81.96;101031.75;5047084;28;20037;-60
2023/07/12 10:22:54;;;;;;;5.63;1.92;;;;;;;22.05;82.28;101027.22;5047566;28;20485;-60
2023/07/12 10:25:24;;;;;;;3.95;1.83;;;;;;;22.32;85.01;101026.84;5041846;28;20021;-59
2023/07/12 10:27:59;;;;;;;4.10;1.60;;;;;;;22.37;79.28;101029.41;5039999;28;20028;-60
2023/07/12 10:30:26;;;;;;;5.15;2.08;;;;;;;22.71;80.93;101015.72;5034476;28;20131;-60
2023/07/12 10:32:59;;;;;;;3.08;1.60;;;;;;;22.86;77.82;101030.44;5047345;28;20029;-60
2023/07/12 10:35:34;;;;;;;3.05;1.60;;;;;;;22.85;74.52;101025.16;5046764;28;20033;-60
2023/07/12 10:38:03;;;;;;;3.47;1.33;;;;;;;22.64;74.31;101035.19;5046728;28;20056;-60
2023/07/12 10:40:37;;;;;;;5.53;2.28;;;;;;;22.60;77.43;101039.63;5037644;28;20029;-60
2023/07/12 10:43:26;;;;;;;4.15;1.75;;;;;;;22.52;78.01;101039.72;5044271;28;20021;-60
2023/07/12 10:45:54;;;;;;;4.45;1.60;;;;;;;22.69;77.15;101037.75;5046851;28;20093;-60
2023/07/12 10:48:24;;;;;;;6.43;1.60;;;;;;;22.82;76.57;101033.16;5046886;28;20025;-61
2023/07/12 10:50:54;;;;;;;8.90;2.00;;;;;;;22.65;76.54;101039.56;5046757;28;20048;-61
2023/07/12 10:53:27;;;;;;;5.47;1.92;;;;;;;22.70;73.99;101039.50;5046599;28;20036;-61
2023/07/12 10:56:08;;;;;;;5.05;1.30;;;;;;;22.96;74.48;101022.34;5047289;28;20068;-61
2023/07/12 10:58:50;;;;;;;4.60;1.50;;;;;;;22.91;71.83;101033.00;5046676;28;20029;-60
2023/07/12 11:01:35;;;;;;;5.32;1.70;;;;;;;22.30;71.36;101040.06;5039735;28;20397;-61
2023/07/12 11:04:31;;;;;;;4.03;1.70;;;;;;;22.54;74.98;101037.09;5030182;28;20048;-60
2023/07/12 11:07:03;;;;;;;6.97;2.08;;;;;;;22.09;73.86;101037.72;5046662;28;20083;-60
2023/07/12 11:09:44;;;;;;;9.88;1.48;;;;;;;22.45;75.47;101031.94;5046992;28;20117;-60
2023/07/12 11:12:31;;;;;;;3.78;1.20;;;;;;;22.72;75.41;101030.66;5046765;28;20025;-60
2023/07/12 11:15:11;;;;;;;5.38;1.38;;;;;;;23.26;74.23;101044.72;5045848;28;20037;-60
2023/07/12 11:17:48;;;;;;;4.78;1.83;;;;;;;23.43;70.61;101043.56;5046562;28;20473;-60
2023/07/12 11:20:34;;;;;;;5.63;1.73;;;;;;;23.23;68.97;101034.22;5046749;28;20762;-60
2023/07/12 11:23:21;;;;;;;6.93;2.20;;;;;;;22.71;68.20;101034.22;5046838;28;20467;-60